createdAt,value
2023-11-19T00:00:01.896Z,7.55
2023-11-19T00:01:01.890Z,7.57
2023-11-19T00:02:01.973Z,7.60
2023-11-19T00:03:01.909Z,7.61
2023-11-19T00:04:02.024Z,7.64
2023-11-19T00:05:01.895Z,7.62
2023-11-19T00:06:01.840Z,7.66
2023-11-19T00:07:01.824Z,7.60
2023-11-19T00:08:01.815Z,7.49
2023-11-19T00:09:01.799Z,7.52
2023-11-19T00:10:01.827Z,7.55
2023-11-19T00:11:01.773Z,7.57
2023-11-19T00:12:01.779Z,7.60
2023-11-19T00:13:01.802Z,7.64
2023-11-19T00:14:01.814Z,7.64
2023-11-19T00:15:01.755Z,7.68
2023-11-19T00:16:01.747Z,7.71
2023-11-19T00:17:01.715Z,7.71
2023-11-19T00:18:02.262Z,7.71
2023-11-19T00:19:01.735Z,7.71
2023-11-19T00:20:02.190Z,7.71
2023-11-19T00:21:01.679Z,7.66
2023-11-19T00:22:01.682Z,7.73
2023-11-19T00:23:01.653Z,7.69
2023-11-19T00:24:01.712Z,7.62
2023-11-19T00:25:01.665Z,7.64
2023-11-19T00:26:01.625Z,7.64
2023-11-19T00:27:01.617Z,7.66
2023-11-19T00:28:01.653Z,7.71
2023-11-19T00:29:01.638Z,7.77
2023-11-19T00:30:01.587Z,7.77
2023-11-19T00:31:01.678Z,7.76
2023-11-19T00:32:01.633Z,7.77
2023-11-19T00:33:01.574Z,7.78
2023-11-19T00:34:01.626Z,7.77
2023-11-19T00:35:01.537Z,7.76
2023-11-19T00:36:01.524Z,7.77
2023-11-19T00:37:01.553Z,7.74
2023-11-19T00:38:01.530Z,7.76
2023-11-19T00:39:01.491Z,7.77
2023-11-19T00:40:01.499Z,7.76
2023-11-19T00:41:01.469Z,7.81
2023-11-19T00:42:01.468Z,7.77
2023-11-19T00:43:01.822Z,7.77
2023-11-19T00:44:01.446Z,7.78
2023-11-19T00:45:01.425Z,7.74
2023-11-19T00:46:01.461Z,7.71
2023-11-19T00:47:01.451Z,7.78
2023-11-19T00:48:02.130Z,7.76
2023-11-19T00:49:01.415Z,7.80
2023-11-19T00:50:01.383Z,7.81
2023-11-19T00:51:01.381Z,7.83
2023-11-19T00:52:01.379Z,7.84
2023-11-19T00:53:01.370Z,7.83
2023-11-19T00:54:01.360Z,7.81
2023-11-19T00:55:01.377Z,7.91
2023-11-19T00:56:01.326Z,7.86
2023-11-19T00:57:01.323Z,7.88
2023-11-19T00:58:01.333Z,7.84
2023-11-19T00:59:01.293Z,7.92
2023-11-19T01:00:01.299Z,7.92
2023-11-19T01:01:01.361Z,7.91
2023-11-19T01:02:01.252Z,7.92
2023-11-19T01:03:01.508Z,7.91
2023-11-19T01:04:01.379Z,7.91
2023-11-19T01:05:01.568Z,7.94
2023-11-19T01:06:01.224Z,7.95
2023-11-19T01:07:01.234Z,7.98
2023-11-19T01:08:01.205Z,7.99
2023-11-19T01:09:01.187Z,7.99
2023-11-19T01:10:01.231Z,7.99
2023-11-19T01:11:01.253Z,7.98
2023-11-19T01:12:01.151Z,7.95
2023-11-19T01:13:01.191Z,7.99
2023-11-19T01:14:01.135Z,8.01
2023-11-19T01:15:01.129Z,7.95
2023-11-19T01:16:01.172Z,7.98
2023-11-19T01:17:01.182Z,7.91
2023-11-19T01:18:01.121Z,7.87
2023-11-19T01:19:12.241Z,7.94
2023-11-19T01:20:01.103Z,7.92
2023-11-19T01:21:01.069Z,7.92
2023-11-19T01:22:01.100Z,7.86
2023-11-19T01:23:01.050Z,7.83
2023-11-19T01:24:01.031Z,7.92
2023-11-19T01:25:01.052Z,7.92
2023-11-19T01:26:01.106Z,7.95
2023-11-19T01:27:01.198Z,7.96
2023-11-19T01:28:01.058Z,7.95
2023-11-19T01:29:00.983Z,7.95
2023-11-19T01:30:00.969Z,7.98
2023-11-19T01:31:00.975Z,8.02
2023-11-19T01:32:00.948Z,8.06
2023-11-19T01:33:01.017Z,7.99
2023-11-19T01:34:00.959Z,8.05
2023-11-19T01:35:00.995Z,8.09
2023-11-19T01:36:00.911Z,7.96
2023-11-19T01:37:00.918Z,8.04
2023-11-19T01:38:00.901Z,7.98
2023-11-19T01:39:00.932Z,7.96
2023-11-19T01:40:00.957Z,7.99
2023-11-19T01:41:00.863Z,7.98
2023-11-19T01:42:00.847Z,7.99
2023-11-19T01:43:00.888Z,8.02
2023-11-19T01:44:00.868Z,8.04
2023-11-19T01:45:00.848Z,8.04
2023-11-19T01:46:00.871Z,8.06
2023-11-19T01:47:00.807Z,8.04
2023-11-19T01:48:00.822Z,8.09
2023-11-19T01:49:00.823Z,8.12
2023-11-19T01:50:00.762Z,8.19
2023-11-19T01:51:03.607Z,8.19
2023-11-19T01:52:00.804Z,8.23
2023-11-19T01:53:00.738Z,8.23
2023-11-19T01:54:00.733Z,8.24
2023-11-19T01:55:00.749Z,8.20
2023-11-19T01:56:00.702Z,8.21
2023-11-19T01:57:00.695Z,8.20
2023-11-19T01:58:00.701Z,8.17
2023-11-19T01:59:00.673Z,8.14
2023-11-19T02:00:00.760Z,8.19
2023-11-19T02:01:00.735Z,8.19
2023-11-19T02:02:01.674Z,8.20
2023-11-19T02:03:00.881Z,8.21
2023-11-19T02:04:00.722Z,8.23
2023-11-19T02:05:00.715Z,8.26
2023-11-19T02:06:00.610Z,8.24
2023-11-19T02:07:00.617Z,8.26
2023-11-19T02:08:00.584Z,8.26
2023-11-19T02:09:00.589Z,8.26
2023-11-19T02:10:00.728Z,8.29
2023-11-19T02:11:00.550Z,8.32
2023-11-19T02:12:00.542Z,8.32
2023-11-19T02:14:00.518Z,8.24
2023-11-19T02:15:00.584Z,8.32
2023-11-19T02:16:00.537Z,8.38
2023-11-19T02:17:00.494Z,8.35
2023-11-19T02:18:00.570Z,8.37
2023-11-19T02:19:00.505Z,8.37
2023-11-19T02:20:00.492Z,8.39
2023-11-19T02:21:00.510Z,8.39
2023-11-19T02:22:00.462Z,8.41
2023-11-19T02:23:00.437Z,8.44
2023-11-19T02:25:00.531Z,8.49
2023-11-19T02:26:00.427Z,8.44
2023-11-19T02:27:00.391Z,8.39
2023-11-19T02:28:00.380Z,8.41
2023-11-19T02:29:00.376Z,8.44
2023-11-19T02:30:00.351Z,8.39
2023-11-19T02:31:00.413Z,8.41
2023-11-19T02:32:00.515Z,8.41
2023-11-19T02:33:00.368Z,8.46
2023-11-19T02:34:00.329Z,8.47
2023-11-19T02:36:00.296Z,8.46
2023-11-19T02:37:00.377Z,8.44
2023-11-19T02:38:00.276Z,8.44
2023-11-19T02:39:00.272Z,8.47
2023-11-19T02:40:00.314Z,8.55
2023-11-19T02:41:00.248Z,8.50
2023-11-19T02:42:00.248Z,8.55
2023-11-19T02:43:00.492Z,8.57
2023-11-19T02:44:00.225Z,8.57
2023-11-19T02:45:00.227Z,8.52
2023-11-19T02:46:00.321Z,8.52
2023-11-19T02:47:00.223Z,8.53
2023-11-19T02:48:00.318Z,8.57
2023-11-19T02:49:00.260Z,8.59
2023-11-19T02:50:00.217Z,8.59
2023-11-19T02:51:00.173Z,8.53
2023-11-19T02:52:00.186Z,8.50
2023-11-19T02:53:00.183Z,8.53
2023-11-19T02:54:00.117Z,8.50
2023-11-19T02:55:00.200Z,8.53
2023-11-19T02:56:00.092Z,8.49
2023-11-19T02:57:00.083Z,8.49
2023-11-19T02:58:00.177Z,8.50
2023-11-19T02:59:00.081Z,8.55
2023-11-19T03:00:00.057Z,8.53
2023-11-19T03:01:00.052Z,8.56
2023-11-19T03:02:00.106Z,8.62
2023-11-19T03:03:00.183Z,8.60
2023-11-19T03:04:00.476Z,8.56
2023-11-19T03:05:00.000Z,8.63
2023-11-19T03:05:59.998Z,8.63
2023-11-19T03:06:59.996Z,8.65
2023-11-19T03:07:59.968Z,8.62
2023-11-19T03:09:00.000Z,8.63
2023-11-19T03:09:59.963Z,8.65
2023-11-19T03:10:59.939Z,8.68
2023-11-19T03:11:59.922Z,8.68
2023-11-19T03:12:59.925Z,8.72
2023-11-19T03:13:59.928Z,8.77
2023-11-19T03:14:59.898Z,8.75
2023-11-19T03:16:00.047Z,8.71
2023-11-19T03:16:59.983Z,8.72
2023-11-19T03:17:59.894Z,8.72
2023-11-19T03:18:59.883Z,8.72
2023-11-19T03:19:59.874Z,8.74
2023-11-19T03:20:59.837Z,8.78
2023-11-19T03:21:59.836Z,8.81
2023-11-19T03:22:59.818Z,8.85
2023-11-19T03:23:59.800Z,8.81
2023-11-19T03:24:59.827Z,8.80
2023-11-19T03:25:59.800Z,8.93
2023-11-19T03:26:59.775Z,8.83
2023-11-19T03:27:59.805Z,8.85
2023-11-19T03:28:59.768Z,8.81
2023-11-19T03:29:59.741Z,8.78
2023-11-19T03:30:59.785Z,8.71
2023-11-19T03:31:59.721Z,8.72
2023-11-19T03:32:59.739Z,8.77
2023-11-19T03:33:59.957Z,8.75
2023-11-19T03:34:59.702Z,8.71
2023-11-19T03:35:59.696Z,8.72
2023-11-19T03:36:59.691Z,8.74
2023-11-19T03:37:59.661Z,8.75
2023-11-19T03:38:59.656Z,8.74
2023-11-19T03:40:02.082Z,8.80
2023-11-19T03:40:59.638Z,8.80
2023-11-19T03:41:59.658Z,8.80
2023-11-19T03:42:59.686Z,8.85
2023-11-19T03:43:59.599Z,8.80
2023-11-19T03:44:59.623Z,8.83
2023-11-19T03:45:59.678Z,8.86
2023-11-19T03:46:59.639Z,8.77
2023-11-19T03:47:59.623Z,8.80
2023-11-19T03:48:59.588Z,8.78
2023-11-19T03:49:59.545Z,8.81
2023-11-19T03:50:59.541Z,8.81
2023-11-19T03:51:59.536Z,8.83
2023-11-19T03:52:59.566Z,8.86
2023-11-19T03:53:59.508Z,8.90
2023-11-19T03:54:59.549Z,8.93
2023-11-19T03:55:59.482Z,8.89
2023-11-19T03:56:59.473Z,8.86
2023-11-19T03:57:59.480Z,8.85
2023-11-19T03:58:59.502Z,8.88
2023-11-19T03:59:59.440Z,8.92
2023-11-19T04:00:59.438Z,8.92
2023-11-19T04:01:59.508Z,8.85
2023-11-19T04:02:59.439Z,8.88
2023-11-19T04:03:59.476Z,8.86
2023-11-19T04:04:59.422Z,8.89
2023-11-19T04:05:59.384Z,8.92
2023-11-19T04:06:59.413Z,8.93
2023-11-19T04:07:59.361Z,8.90
2023-11-19T04:08:59.357Z,8.88
2023-11-19T04:09:59.351Z,8.89
2023-11-19T04:10:59.362Z,8.83
2023-11-19T04:11:59.323Z,8.83
2023-11-19T04:12:59.345Z,8.81
2023-11-19T04:13:59.304Z,8.86
2023-11-19T04:15:01.564Z,8.88
2023-11-19T04:15:59.347Z,8.86
2023-11-19T04:16:59.318Z,8.86
2023-11-19T04:17:59.315Z,8.95
2023-11-19T04:18:59.276Z,8.99
2023-11-19T04:19:59.270Z,8.98
2023-11-19T04:20:59.238Z,8.98
2023-11-19T04:21:59.271Z,8.96
2023-11-19T04:22:59.228Z,9.03
2023-11-19T04:23:59.202Z,8.99
2023-11-19T04:24:59.257Z,9.01
2023-11-19T04:26:10.919Z,9.11
2023-11-19T04:26:59.189Z,9.11
2023-11-19T04:27:59.205Z,9.15
2023-11-19T04:28:59.153Z,9.18
2023-11-19T04:29:59.159Z,9.19
2023-11-19T04:30:59.194Z,9.19
2023-11-19T04:31:59.113Z,9.24
2023-11-19T04:32:59.130Z,9.19
2023-11-19T04:33:59.116Z,9.16
2023-11-19T04:34:59.118Z,9.15
2023-11-19T04:35:59.080Z,9.18
2023-11-19T04:36:59.100Z,9.19
2023-11-19T04:37:59.067Z,9.23
2023-11-19T04:38:59.069Z,9.26
2023-11-19T04:39:59.083Z,9.30
2023-11-19T04:40:59.058Z,9.36
2023-11-19T04:41:59.030Z,9.29
2023-11-19T04:42:59.061Z,9.34
2023-11-19T04:43:59.025Z,9.34
2023-11-19T04:44:59.008Z,9.33
2023-11-19T04:45:59.047Z,9.32
2023-11-19T04:46:59.077Z,9.36
2023-11-19T04:47:58.989Z,9.34
2023-11-19T04:48:59.004Z,9.29
2023-11-19T04:49:58.948Z,9.27
2023-11-19T04:50:58.934Z,9.27
2023-11-19T04:51:59.000Z,9.23
2023-11-19T04:53:01.195Z,9.26
2023-11-19T04:53:58.892Z,9.23
2023-11-19T04:54:58.912Z,9.30
2023-11-19T04:55:58.883Z,9.30
2023-11-19T04:56:58.870Z,9.33
2023-11-19T04:57:58.882Z,9.33
2023-11-19T04:58:58.859Z,9.30
2023-11-19T04:59:58.856Z,9.33
2023-11-19T05:00:58.836Z,9.33
2023-11-19T05:01:58.821Z,9.36
2023-11-19T05:02:58.889Z,9.33
2023-11-19T05:03:58.994Z,9.29
2023-11-19T05:04:58.827Z,9.36
2023-11-19T05:05:58.794Z,9.33
2023-11-19T05:06:58.823Z,9.33
2023-11-19T05:07:58.756Z,9.34
2023-11-19T05:08:58.737Z,9.37
2023-11-19T05:09:58.751Z,9.36
2023-11-19T05:10:58.742Z,9.40
2023-11-19T05:11:58.741Z,9.37
2023-11-19T05:12:58.763Z,9.41
2023-11-19T05:13:58.690Z,9.44
2023-11-19T05:14:58.675Z,9.45
2023-11-19T05:15:58.703Z,9.40
2023-11-19T05:16:58.685Z,9.42
2023-11-19T05:17:58.677Z,9.42
2023-11-19T05:18:58.663Z,9.41
2023-11-19T05:19:58.639Z,9.42
2023-11-19T05:20:58.613Z,9.45
2023-11-19T05:21:58.631Z,9.48
2023-11-19T05:22:58.601Z,9.48
2023-11-19T05:23:58.613Z,9.50
2023-11-19T05:24:58.640Z,9.52
2023-11-19T05:25:58.571Z,9.48
2023-11-19T05:26:58.550Z,9.50
2023-11-19T05:27:58.579Z,9.48
2023-11-19T05:28:58.552Z,9.47
2023-11-19T05:29:58.525Z,9.47
2023-11-19T05:30:58.573Z,9.52
2023-11-19T05:31:58.523Z,9.51
2023-11-19T05:32:58.489Z,9.50
2023-11-19T05:33:58.596Z,9.51
2023-11-19T05:34:58.590Z,9.55
2023-11-19T05:35:58.466Z,9.55
2023-11-19T05:36:58.523Z,9.59
2023-11-19T05:37:58.443Z,9.57
2023-11-19T05:38:58.439Z,9.54
2023-11-19T05:39:58.585Z,9.54
2023-11-19T05:40:58.412Z,9.52
2023-11-19T05:41:58.399Z,9.50
2023-11-19T05:42:58.385Z,9.52
2023-11-19T05:43:58.382Z,9.54
2023-11-19T05:44:58.373Z,9.55
2023-11-19T05:45:58.403Z,9.57
2023-11-19T05:46:58.403Z,9.62
2023-11-19T05:47:58.420Z,9.59
2023-11-19T05:48:58.326Z,9.59
2023-11-19T05:49:58.328Z,9.60
2023-11-19T05:50:58.309Z,9.60
2023-11-19T05:51:58.318Z,9.57
2023-11-19T05:52:58.287Z,9.59
2023-11-19T05:53:58.280Z,9.63
2023-11-19T05:54:58.261Z,9.62
2023-11-19T05:55:58.266Z,9.67
2023-11-19T05:56:58.261Z,9.63
2023-11-19T05:57:58.234Z,9.65
2023-11-19T05:58:58.225Z,9.66
2023-11-19T05:59:58.230Z,9.65
2023-11-19T06:00:58.236Z,9.65
2023-11-19T06:01:58.267Z,9.66
2023-11-19T06:02:58.275Z,9.69
2023-11-19T06:03:58.236Z,9.70
2023-11-19T06:04:58.157Z,9.67
2023-11-19T06:05:58.152Z,9.77
2023-11-19T06:06:58.731Z,9.77
2023-11-19T06:07:58.132Z,9.77
2023-11-19T06:08:58.118Z,9.81
2023-11-19T06:09:58.115Z,9.83
2023-11-19T06:10:58.172Z,9.81
2023-11-19T06:11:58.103Z,9.77
2023-11-19T06:12:58.100Z,9.78
2023-11-19T06:13:58.071Z,9.77
2023-11-19T06:14:58.052Z,9.75
2023-11-19T06:15:57.998Z,9.73
2023-11-19T06:16:58.115Z,9.77
2023-11-19T06:17:58.072Z,9.77
2023-11-19T06:18:58.078Z,9.80
2023-11-19T06:19:57.955Z,9.80
2023-11-19T06:20:57.950Z,9.84
2023-11-19T06:21:57.985Z,9.90
2023-11-19T06:22:57.977Z,9.91
2023-11-19T06:23:57.974Z,9.84
2023-11-19T06:24:57.889Z,9.83
2023-11-19T06:25:57.892Z,9.93
2023-11-19T06:26:57.884Z,9.90
2023-11-19T06:27:57.874Z,9.87
2023-11-19T06:28:57.859Z,9.87
2023-11-19T06:29:57.878Z,9.91
2023-11-19T06:30:57.833Z,9.90
2023-11-19T06:31:57.831Z,9.87
2023-11-19T06:32:57.857Z,9.88
2023-11-19T06:33:57.860Z,9.96
2023-11-19T06:34:57.790Z,9.94
2023-11-19T06:35:57.804Z,9.94
2023-11-19T06:36:57.783Z,9.99
2023-11-19T06:37:57.765Z,9.96
2023-11-19T06:38:57.756Z,9.99
2023-11-19T06:39:57.742Z,10.08
2023-11-19T06:40:57.750Z,10.02
2023-11-19T06:41:57.731Z,9.93
2023-11-19T06:42:57.712Z,9.88
2023-11-19T06:43:57.720Z,9.94
2023-11-19T06:44:57.699Z,9.99
2023-11-19T06:45:57.682Z,9.93
2023-11-19T06:46:57.733Z,9.98
2023-11-19T06:47:57.661Z,9.98
2023-11-19T06:48:57.656Z,9.93
2023-11-19T06:49:57.637Z,9.90
2023-11-19T06:50:57.644Z,9.91
2023-11-19T06:51:57.618Z,9.94
2023-11-19T06:52:57.627Z,9.94
2023-11-19T06:53:57.604Z,9.99
2023-11-19T06:55:08.106Z,10.02
2023-11-19T06:55:57.633Z,10.02
2023-11-19T06:56:57.563Z,10.02
2023-11-19T06:57:57.597Z,10.05
2023-11-19T06:58:57.552Z,10.03
2023-11-19T06:59:57.539Z,10.03
2023-11-19T07:00:57.569Z,10.06
2023-11-19T07:01:57.601Z,10.02
2023-11-19T07:02:57.655Z,10.08
2023-11-19T07:03:57.536Z,10.03
2023-11-19T07:04:57.478Z,10.08
2023-11-19T07:05:57.471Z,10.05
2023-11-19T07:06:57.457Z,10.08
2023-11-19T07:07:57.456Z,10.05
2023-11-19T07:08:57.458Z,10.09
2023-11-19T07:09:57.448Z,10.14
2023-11-19T07:10:57.419Z,10.16
2023-11-19T07:11:57.410Z,10.16
2023-11-19T07:12:57.394Z,10.09
2023-11-19T07:13:57.389Z,10.05
2023-11-19T07:14:57.386Z,10.06
2023-11-19T07:15:57.415Z,10.10
2023-11-19T07:16:57.350Z,10.08
2023-11-19T07:18:57.325Z,10.14
2023-11-19T07:19:57.344Z,10.21
2023-11-19T07:20:57.318Z,10.18
2023-11-19T07:21:57.304Z,10.18
2023-11-19T07:22:58.333Z,10.18
2023-11-19T07:23:57.284Z,10.18
2023-11-19T07:24:57.283Z,10.23
2023-11-19T07:25:57.280Z,10.21
2023-11-19T07:26:57.251Z,10.20
2023-11-19T07:27:57.264Z,10.17
2023-11-19T07:28:57.248Z,10.20
2023-11-19T07:29:57.407Z,10.23
2023-11-19T07:30:57.203Z,10.24
2023-11-19T07:31:57.891Z,10.21
2023-11-19T07:32:57.224Z,10.12
2023-11-19T07:33:57.212Z,10.20
2023-11-19T07:34:57.182Z,10.20
2023-11-19T07:35:57.235Z,10.23
2023-11-19T07:36:57.187Z,10.20
2023-11-19T07:37:57.168Z,10.23
2023-11-19T07:38:57.171Z,10.23
2023-11-19T07:39:57.197Z,10.20
2023-11-19T07:40:57.839Z,10.14
2023-11-19T07:41:57.101Z,10.10
2023-11-19T07:42:57.205Z,10.14
2023-11-19T07:43:57.121Z,10.17
2023-11-19T07:44:57.060Z,10.21
2023-11-19T07:45:57.062Z,10.21
2023-11-19T07:46:57.059Z,10.17
2023-11-19T07:47:57.105Z,10.23
2023-11-19T07:48:57.024Z,10.21
2023-11-19T07:49:57.065Z,10.17
2023-11-19T07:50:57.003Z,10.18
2023-11-19T07:51:56.999Z,10.16
2023-11-19T07:52:56.975Z,10.18
2023-11-19T07:53:56.976Z,10.21
2023-11-19T07:54:56.984Z,10.21
2023-11-19T07:55:56.972Z,10.20
2023-11-19T07:56:57.005Z,10.18
2023-11-19T07:57:56.940Z,10.26
2023-11-19T07:58:56.923Z,10.27
2023-11-19T07:59:56.911Z,10.34
2023-11-19T08:00:56.938Z,10.35
2023-11-19T08:01:56.894Z,10.36
2023-11-19T08:02:56.929Z,10.41
2023-11-19T08:03:59.142Z,10.45
2023-11-19T08:04:56.949Z,10.42
2023-11-19T08:05:56.889Z,10.39
2023-11-19T08:06:56.862Z,10.34
2023-11-19T08:07:56.850Z,10.28
2023-11-19T08:08:56.821Z,10.24
2023-11-19T08:09:56.822Z,10.28
2023-11-19T08:10:56.792Z,10.42
2023-11-19T08:11:56.802Z,10.41
2023-11-19T08:12:56.773Z,10.36
2023-11-19T08:13:56.779Z,10.39
2023-11-19T08:14:56.764Z,10.36
2023-11-19T08:15:56.805Z,10.41
2023-11-19T08:16:56.732Z,10.46
2023-11-19T08:17:56.833Z,10.49
2023-11-19T08:18:56.710Z,10.42
2023-11-19T08:19:56.726Z,10.46
2023-11-19T08:20:56.687Z,10.52
2023-11-19T08:21:56.686Z,10.48
2023-11-19T08:22:56.664Z,10.43
2023-11-19T08:23:56.668Z,10.45
2023-11-19T08:24:56.671Z,10.45
2023-11-19T08:25:56.652Z,10.54
2023-11-19T08:27:56.621Z,10.58
2023-11-19T08:28:56.608Z,10.57
2023-11-19T08:29:56.614Z,10.55
2023-11-19T08:30:56.616Z,10.57
2023-11-19T08:31:56.602Z,10.61
2023-11-19T08:32:56.594Z,10.65
2023-11-19T08:33:56.561Z,10.64
2023-11-19T08:34:56.558Z,10.70
2023-11-19T08:35:56.539Z,10.72
2023-11-19T08:36:56.524Z,10.73
2023-11-19T08:37:56.512Z,10.79
2023-11-19T08:38:56.528Z,10.78
2023-11-19T08:39:56.512Z,10.72
2023-11-19T08:40:56.493Z,10.76
2023-11-19T08:41:56.528Z,10.86
2023-11-19T08:42:56.456Z,10.87
2023-11-19T08:43:56.454Z,10.95
2023-11-19T08:44:56.437Z,10.93
2023-11-19T08:45:56.439Z,10.94
2023-11-19T08:46:56.419Z,11.03
2023-11-19T08:47:56.495Z,11.09
2023-11-19T08:48:56.396Z,11.16
2023-11-19T08:50:56.377Z,11.41
2023-11-19T08:51:56.376Z,11.51
2023-11-19T08:52:56.355Z,11.56
2023-11-19T08:53:56.373Z,11.61
2023-11-19T08:54:56.336Z,11.70
2023-11-19T08:55:56.344Z,11.73
2023-11-19T08:56:56.347Z,11.76
2023-11-19T08:57:56.322Z,11.73
2023-11-19T08:58:57.104Z,11.74
2023-11-19T08:59:56.324Z,11.80
2023-11-19T09:00:56.279Z,11.87
2023-11-19T09:01:56.273Z,11.85
2023-11-19T09:02:56.376Z,11.80
2023-11-19T09:03:56.394Z,11.88
2023-11-19T09:04:56.301Z,11.96
2023-11-19T09:05:56.280Z,11.84
2023-11-19T09:06:56.211Z,11.85
2023-11-19T09:07:56.207Z,11.88
2023-11-19T09:08:56.189Z,11.89
2023-11-19T09:09:56.186Z,12.00
2023-11-19T09:10:56.428Z,11.95
2023-11-19T09:11:56.161Z,11.88
2023-11-19T09:12:58.896Z,11.96
2023-11-19T09:13:56.141Z,12.04
2023-11-19T09:14:56.136Z,12.11
2023-11-19T09:15:56.178Z,12.21
2023-11-19T09:16:56.118Z,12.26
2023-11-19T09:17:56.146Z,12.30
2023-11-19T09:18:56.109Z,12.30
2023-11-19T09:19:56.135Z,12.36
2023-11-19T09:20:56.109Z,12.35
2023-11-19T09:21:56.085Z,12.29
2023-11-19T09:22:56.047Z,12.33
2023-11-19T09:23:56.042Z,12.26
2023-11-19T09:24:56.037Z,12.18
2023-11-19T09:25:56.016Z,12.14
2023-11-19T09:26:56.009Z,12.11
2023-11-19T09:27:56.277Z,12.11
2023-11-19T09:28:55.991Z,12.07
2023-11-19T09:29:55.995Z,11.95
2023-11-19T09:30:55.969Z,11.88
2023-11-19T09:31:55.957Z,11.93
2023-11-19T09:32:56.670Z,11.96
2023-11-19T09:33:56.015Z,11.97
2023-11-19T09:34:55.933Z,11.99
2023-11-19T09:35:55.912Z,12.04
2023-11-19T09:36:55.906Z,12.17
2023-11-19T09:37:55.919Z,12.22
2023-11-19T09:38:55.893Z,12.17
2023-11-19T09:39:55.917Z,12.23
2023-11-19T09:40:55.865Z,12.22
2023-11-19T09:41:55.852Z,12.18
2023-11-19T09:42:55.846Z,12.23
2023-11-19T09:43:55.861Z,12.26
2023-11-19T09:44:55.820Z,12.23
2023-11-19T09:45:55.849Z,12.25
2023-11-19T09:46:55.805Z,12.30
2023-11-19T09:47:55.930Z,12.23
2023-11-19T09:48:55.851Z,12.28
2023-11-19T09:49:58.620Z,12.30
2023-11-19T09:50:55.800Z,12.30
2023-11-19T09:51:55.751Z,12.33
2023-11-19T09:52:55.749Z,12.35
2023-11-19T09:53:55.750Z,12.44
2023-11-19T09:54:55.746Z,12.44
2023-11-19T09:55:55.705Z,12.43
2023-11-19T09:56:55.739Z,12.38
2023-11-19T09:57:55.724Z,12.35
2023-11-19T09:58:55.692Z,12.41
2023-11-19T09:59:55.676Z,12.41
2023-11-19T10:01:20.217Z,12.44
2023-11-19T10:01:55.692Z,12.53
2023-11-19T10:02:55.819Z,12.58
2023-11-19T10:03:55.728Z,12.59
2023-11-19T10:04:55.626Z,12.59
2023-11-19T10:05:55.645Z,12.58
2023-11-19T10:06:55.606Z,12.55
2023-11-19T10:07:55.593Z,12.54
2023-11-19T10:08:55.643Z,12.53
2023-11-19T10:09:55.574Z,12.55
2023-11-19T10:10:55.559Z,12.58
2023-11-19T10:11:55.580Z,12.59
2023-11-19T10:12:58.526Z,12.59
2023-11-19T10:13:55.604Z,12.54
2023-11-19T10:14:56.339Z,12.53
2023-11-19T10:15:55.531Z,12.54
2023-11-19T10:16:55.510Z,12.58
2023-11-19T10:17:55.537Z,12.58
2023-11-19T10:18:55.477Z,12.59
2023-11-19T10:19:55.490Z,12.54
2023-11-19T10:20:55.456Z,12.44
2023-11-19T10:21:55.442Z,12.41
2023-11-19T10:22:55.445Z,12.41
2023-11-19T10:23:55.417Z,12.46
2023-11-19T10:24:56.794Z,12.48
2023-11-19T10:25:55.421Z,12.61
2023-11-19T10:26:55.414Z,12.66
2023-11-19T10:27:55.465Z,12.73
2023-11-19T10:28:55.388Z,12.79
2023-11-19T10:29:55.398Z,12.80
2023-11-19T10:30:55.366Z,12.80
2023-11-19T10:31:55.339Z,12.84
2023-11-19T10:32:55.367Z,12.95
2023-11-19T10:33:55.525Z,13.01
2023-11-19T10:34:55.361Z,13.13
2023-11-19T10:36:55.293Z,13.09
2023-11-19T10:37:55.304Z,13.11
2023-11-19T10:38:55.330Z,13.20
2023-11-19T10:39:55.259Z,13.36
2023-11-19T10:40:55.271Z,13.39
2023-11-19T10:41:56.755Z,13.45
2023-11-19T10:42:55.236Z,13.51
2023-11-19T10:43:55.251Z,13.57
2023-11-19T10:44:55.223Z,13.53
2023-11-19T10:45:55.351Z,13.43
2023-11-19T10:46:55.207Z,13.42
2023-11-19T10:47:55.271Z,13.40
2023-11-19T10:48:55.197Z,13.42
2023-11-19T10:49:55.155Z,13.49
2023-11-19T10:50:55.154Z,13.53
2023-11-19T10:51:55.416Z,13.54
2023-11-19T10:52:55.164Z,13.67
2023-11-19T10:53:55.124Z,13.67
2023-11-19T10:54:55.169Z,13.79
2023-11-19T10:55:55.106Z,13.85
2023-11-19T10:56:55.145Z,13.78
2023-11-19T10:57:55.450Z,13.73
2023-11-19T10:58:55.071Z,13.72
2023-11-19T10:59:55.073Z,13.73
2023-11-19T11:00:55.070Z,13.75
2023-11-19T11:01:55.072Z,13.75
2023-11-19T11:02:55.125Z,13.79
2023-11-19T11:03:55.170Z,13.73
2023-11-19T11:04:55.029Z,13.68
2023-11-19T11:05:55.006Z,13.67
2023-11-19T11:06:55.065Z,13.65
2023-11-19T11:07:55.004Z,13.67
2023-11-19T11:08:54.979Z,13.71
2023-11-19T11:09:54.988Z,13.60
2023-11-19T11:10:57.324Z,13.51
2023-11-19T11:11:54.950Z,13.51
2023-11-19T11:12:55.006Z,13.54
2023-11-19T11:13:54.934Z,13.51
2023-11-19T11:14:54.921Z,13.45
2023-11-19T11:15:55.048Z,13.45
2023-11-19T11:16:54.969Z,13.51
2023-11-19T11:17:54.940Z,13.51
2023-11-19T11:18:54.935Z,13.49
2023-11-19T11:19:54.864Z,13.49
2023-11-19T11:20:54.956Z,13.47
2023-11-19T11:21:54.912Z,13.39
2023-11-19T11:22:55.285Z,13.40
2023-11-19T11:23:54.840Z,13.38
2023-11-19T11:24:54.872Z,13.35
2023-11-19T11:25:54.810Z,13.32
2023-11-19T11:26:54.811Z,13.38
2023-11-19T11:27:54.860Z,13.38
2023-11-19T11:28:54.800Z,13.39
2023-11-19T11:29:54.770Z,13.40
2023-11-19T11:30:54.817Z,13.38
2023-11-19T11:31:54.805Z,13.39
2023-11-19T11:32:54.754Z,13.43
2023-11-19T11:34:56.419Z,13.35
2023-11-19T11:35:54.710Z,13.36
2023-11-19T11:36:54.750Z,13.32
2023-11-19T11:37:54.704Z,13.32
2023-11-19T11:38:54.692Z,13.32
2023-11-19T11:39:54.776Z,13.39
2023-11-19T11:40:54.701Z,13.39
2023-11-19T11:41:54.654Z,13.32
2023-11-19T11:42:54.686Z,13.38
2023-11-19T11:43:54.636Z,13.47
2023-11-19T11:44:54.671Z,13.45
2023-11-19T11:45:54.676Z,13.43
2023-11-19T11:46:54.632Z,13.43
2023-11-19T11:47:54.613Z,13.46
2023-11-19T11:48:54.599Z,13.45
2023-11-19T11:49:54.647Z,13.42
2023-11-19T11:50:54.582Z,13.46
2023-11-19T11:51:54.569Z,13.45
2023-11-19T11:52:54.551Z,13.49
2023-11-19T11:53:54.545Z,13.49
2023-11-19T11:54:54.619Z,13.46
2023-11-19T11:55:54.521Z,13.45
2023-11-19T11:57:12.036Z,13.43
2023-11-19T11:57:54.520Z,13.39
2023-11-19T11:58:54.504Z,13.43
2023-11-19T11:59:54.501Z,13.42
2023-11-19T12:00:54.497Z,13.42
2023-11-19T12:01:54.469Z,13.43
2023-11-19T12:02:54.476Z,13.42
2023-11-19T12:03:54.567Z,13.40
2023-11-19T12:04:54.833Z,13.42
2023-11-19T12:05:54.436Z,13.40
2023-11-19T12:06:54.444Z,13.39
2023-11-19T12:07:54.418Z,13.38
2023-11-19T12:08:54.405Z,13.35
2023-11-19T12:09:54.528Z,13.32
2023-11-19T12:10:54.384Z,13.26
2023-11-19T12:11:54.372Z,13.24
2023-11-19T12:12:54.495Z,13.16
2023-11-19T12:13:54.351Z,12.96
2023-11-19T12:14:54.362Z,12.98
2023-11-19T12:15:54.332Z,12.91
2023-11-19T12:16:54.343Z,12.95
2023-11-19T12:17:54.314Z,12.91
2023-11-19T12:18:54.359Z,13.06
2023-11-19T12:19:54.322Z,13.13
2023-11-19T12:20:54.296Z,13.06
2023-11-19T12:21:54.308Z,13.06
2023-11-19T12:22:54.297Z,13.05
2023-11-19T12:23:54.249Z,13.04
2023-11-19T12:24:54.268Z,13.04
2023-11-19T12:25:54.277Z,13.06
2023-11-19T12:26:54.230Z,13.08
2023-11-19T12:27:54.393Z,13.11
2023-11-19T12:28:54.213Z,13.13
2023-11-19T12:29:54.208Z,13.20
2023-11-19T12:30:54.268Z,13.24
2023-11-19T12:31:54.208Z,13.19
2023-11-19T12:32:54.190Z,13.14
2023-11-19T12:33:54.175Z,13.13
2023-11-19T12:34:54.157Z,13.14
2023-11-19T12:35:54.170Z,13.21
2023-11-19T12:36:54.156Z,13.32
2023-11-19T12:37:54.380Z,13.39
2023-11-19T12:38:54.126Z,13.40
2023-11-19T12:39:54.114Z,13.57
2023-11-19T12:40:54.307Z,13.72
2023-11-19T12:41:54.361Z,13.85
2023-11-19T12:42:54.155Z,13.96
2023-11-19T12:43:54.116Z,14.09
2023-11-19T12:44:54.074Z,14.13
2023-11-19T12:45:54.087Z,14.12
2023-11-19T12:46:54.100Z,14.26
2023-11-19T12:47:54.051Z,14.26
2023-11-19T12:48:54.041Z,14.26
2023-11-19T12:49:54.010Z,14.21
2023-11-19T12:50:54.022Z,14.15
2023-11-19T12:51:54.074Z,14.11
2023-11-19T12:52:54.004Z,14.09
2023-11-19T12:53:53.990Z,14.19
2023-11-19T12:54:54.012Z,14.18
2023-11-19T12:55:54.000Z,14.13
2023-11-19T12:56:53.957Z,14.05
2023-11-19T12:57:53.960Z,14.05
2023-11-19T12:58:53.922Z,14.00
2023-11-19T12:59:53.913Z,13.93
2023-11-19T13:00:53.936Z,13.88
2023-11-19T13:01:53.983Z,13.94
2023-11-19T13:02:53.880Z,14.09
2023-11-19T13:03:53.876Z,14.16
2023-11-19T13:04:53.904Z,14.31
2023-11-19T13:05:53.853Z,14.30
2023-11-19T13:07:53.837Z,14.45
2023-11-19T13:08:54.042Z,14.38
2023-11-19T13:09:53.820Z,14.23
2023-11-19T13:10:53.846Z,14.13
2023-11-19T13:11:53.822Z,14.01
2023-11-19T13:12:53.824Z,13.98
2023-11-19T13:13:54.113Z,13.98